sensor_id;sensor_type;location;lat;lon;timestamp;P1;durP1;ratioP1;P2;durP2;ratioP2
47625;SDS011;33342;45.574;9.252;2022-07-01T00:01:32;4.38;;;1.75;;
47625;SDS011;33342;45.574;9.252;2022-07-01T00:03:59;5.10;;;2.08;;
47625;SDS011;33342;45.574;9.252;2022-07-01T00:06:26;5.53;;;2.05;;
47625;SDS011;33342;45.574;9.252;2022-07-01T00:08:53;5.15;;;2.42;;
47625;SDS011;33342;45.574;9.252;2022-07-01T00:11:20;7.35;;;2.55;;
47625;SDS011;33342;45.574;9.252;2022-07-01T00:13:47;8.68;;;2.30;;
47625;SDS011;33342;45.574;9.252;2022-07-01T00:16:15;4.82;;;2.15;;
47625;SDS011;33342;45.574;9.252;2022-07-01T00:18:42;7.80;;;2.22;;
47625;SDS011;33342;45.574;9.252;2022-07-01T00:21:09;3.75;;;2.17;;
47625;SDS011;33342;45.574;9.252;2022-07-01T00:23:43;5.30;;;1.90;;
47625;SDS011;33342;45.574;9.252;2022-07-01T00:26:10;9.60;;;2.28;;
47625;SDS011;33342;45.574;9.252;2022-07-01T00:28:37;6.65;;;2.17;;
47625;SDS011;33342;45.574;9.252;2022-07-01T00:31:04;3.88;;;1.60;;
47625;SDS011;33342;45.574;9.252;2022-07-01T00:33:31;4.63;;;2.00;;
47625;SDS011;33342;45.574;9.252;2022-07-01T00:35:58;4.30;;;1.73;;
47625;SDS011;33342;45.574;9.252;2022-07-01T00:38:26;5.72;;;1.80;;
47625;SDS011;33342;45.574;9.252;2022-07-01T00:40:55;5.15;;;1.70;;
47625;SDS011;33342;45.574;9.252;2022-07-01T00:43:23;5.10;;;1.30;;
47625;SDS011;33342;45.574;9.252;2022-07-01T00:46:11;5.13;;;1.67;;
47625;SDS011;33342;45.574;9.252;2022-07-01T00:48:38;3.78;;;1.33;;
47625;SDS011;33342;45.574;9.252;2022-07-01T00:51:06;5.13;;;1.30;;
47625;SDS011;33342;45.574;9.252;2022-07-01T00:53:34;3.85;;;1.27;;
47625;SDS011;33342;45.574;9.252;2022-07-01T00:56:02;3.53;;;1.60;;
47625;SDS011;33342;45.574;9.252;2022-07-01T00:58:29;4.00;;;1.60;;
47625;SDS011;33342;45.574;9.252;2022-07-01T01:00:57;5.07;;;1.50;;
47625;SDS011;33342;45.574;9.252;2022-07-01T01:03:25;6.20;;;1.60;;
47625;SDS011;33342;45.574;9.252;2022-07-01T01:05:53;4.28;;;1.67;;
47625;SDS011;33342;45.574;9.252;2022-07-01T01:08:23;5.65;;;1.70;;
47625;SDS011;33342;45.574;9.252;2022-07-01T01:10:54;2.58;;;1.27;;
47625;SDS011;33342;45.574;9.252;2022-07-01T01:13:21;4.25;;;1.50;;
47625;SDS011;33342;45.574;9.252;2022-07-01T01:15:48;4.60;;;1.60;;
47625;SDS011;33342;45.574;9.252;2022-07-01T01:18:16;4.93;;;1.50;;
47625;SDS011;33342;45.574;9.252;2022-07-01T01:20:43;4.18;;;1.90;;
47625;SDS011;33342;45.574;9.252;2022-07-01T01:23:10;6.18;;;1.80;;
47625;SDS011;33342;45.574;9.252;2022-07-01T01:25:37;8.02;;;1.75;;
47625;SDS011;33342;45.574;9.252;2022-07-01T01:28:05;5.32;;;1.55;;
47625;SDS011;33342;45.574;9.252;2022-07-01T01:30:32;4.40;;;1.60;;
47625;SDS011;33342;45.574;9.252;2022-07-01T01:32:59;6.70;;;1.80;;
47625;SDS011;33342;45.574;9.252;2022-07-01T01:35:26;6.65;;;1.90;;
47625;SDS011;33342;45.574;9.252;2022-07-01T01:37:53;5.22;;;1.85;;
47625;SDS011;33342;45.574;9.252;2022-07-01T01:40:20;8.82;;;2.00;;
47625;SDS011;33342;45.574;9.252;2022-07-01T01:42:48;5.97;;;2.10;;
47625;SDS011;33342;45.574;9.252;2022-07-01T01:45:15;6.45;;;1.90;;
47625;SDS011;33342;45.574;9.252;2022-07-01T01:47:42;4.35;;;1.80;;
47625;SDS011;33342;45.574;9.252;2022-07-01T01:50:09;5.18;;;1.77;;
47625;SDS011;33342;45.574;9.252;2022-07-01T01:52:38;4.00;;;1.80;;
47625;SDS011;33342;45.574;9.252;2022-07-01T01:55:09;5.85;;;2.33;;
47625;SDS011;33342;45.574;9.252;2022-07-01T01:57:37;8.75;;;2.45;;
47625;SDS011;33342;45.574;9.252;2022-07-01T02:00:05;5.60;;;2.20;;
47625;SDS011;33342;45.574;9.252;2022-07-01T02:02:37;6.03;;;2.22;;
47625;SDS011;33342;45.574;9.252;2022-07-01T02:05:05;5.88;;;2.45;;
47625;SDS011;33342;45.574;9.252;2022-07-01T02:07:37;9.27;;;2.53;;
47625;SDS011;33342;45.574;9.252;2022-07-01T02:10:05;8.13;;;2.28;;
47625;SDS011;33342;45.574;9.252;2022-07-01T02:12:35;6.45;;;2.58;;
47625;SDS011;33342;45.574;9.252;2022-07-01T02:15:02;6.70;;;2.55;;
47625;SDS011;33342;45.574;9.252;2022-07-01T02:17:30;5.93;;;2.40;;
47625;SDS011;33342;45.574;9.252;2022-07-01T02:19:57;6.28;;;2.50;;
47625;SDS011;33342;45.574;9.252;2022-07-01T02:22:24;7.60;;;2.75;;
47625;SDS011;33342;45.574;9.252;2022-07-01T02:24:51;6.13;;;2.20;;
47625;SDS011;33342;45.574;9.252;2022-07-01T02:27:18;7.65;;;2.58;;
47625;SDS011;33342;45.574;9.252;2022-07-01T02:29:45;5.97;;;2.40;;
47625;SDS011;33342;45.574;9.252;2022-07-01T02:32:12;6.80;;;2.33;;
47625;SDS011;33342;45.574;9.252;2022-07-01T02:34:39;6.38;;;2.55;;
47625;SDS011;33342;45.574;9.252;2022-07-01T02:37:07;5.53;;;2.17;;
47625;SDS011;33342;45.574;9.252;2022-07-01T02:39:35;5.40;;;2.42;;
47625;SDS011;33342;45.574;9.252;2022-07-01T02:42:02;6.38;;;2.47;;
47625;SDS011;33342;45.574;9.252;2022-07-01T02:44:49;7.15;;;2.63;;
47625;SDS011;33342;45.574;9.252;2022-07-01T02:47:16;5.65;;;2.40;;
47625;SDS011;33342;45.574;9.252;2022-07-01T02:49:43;5.38;;;2.42;;
47625;SDS011;33342;45.574;9.252;2022-07-01T02:52:10;6.43;;;2.22;;
47625;SDS011;33342;45.574;9.252;2022-07-01T02:54:37;5.93;;;2.20;;
47625;SDS011;33342;45.574;9.252;2022-07-01T02:57:05;5.43;;;2.20;;
47625;SDS011;33342;45.574;9.252;2022-07-01T02:59:32;7.47;;;2.45;;
47625;SDS011;33342;45.574;9.252;2022-07-01T03:01:59;8.35;;;2.20;;
47625;SDS011;33342;45.574;9.252;2022-07-01T03:04:27;9.15;;;2.55;;
47625;SDS011;33342;45.574;9.252;2022-07-01T03:06:54;8.27;;;3.08;;
47625;SDS011;33342;45.574;9.252;2022-07-01T03:09:21;8.00;;;2.58;;
47625;SDS011;33342;45.574;9.252;2022-07-01T03:11:49;6.38;;;2.40;;
47625;SDS011;33342;45.574;9.252;2022-07-01T03:14:16;9.30;;;3.00;;
47625;SDS011;33342;45.574;9.252;2022-07-01T03:16:43;9.10;;;2.63;;
47625;SDS011;33342;45.574;9.252;2022-07-01T03:19:13;5.40;;;2.53;;
47625;SDS011;33342;45.574;9.252;2022-07-01T03:21:41;10.75;;;3.38;;
47625;SDS011;33342;45.574;9.252;2022-07-01T03:24:08;7.20;;;3.15;;
47625;SDS011;33342;45.574;9.252;2022-07-01T03:26:35;6.18;;;2.53;;
47625;SDS011;33342;45.574;9.252;2022-07-01T03:29:04;5.82;;;2.28;;
47625;SDS011;33342;45.574;9.252;2022-07-01T03:31:31;10.75;;;3.05;;
47625;SDS011;33342;45.574;9.252;2022-07-01T03:33:58;6.63;;;2.67;;
47625;SDS011;33342;45.574;9.252;2022-07-01T03:36:25;8.48;;;2.67;;
47625;SDS011;33342;45.574;9.252;2022-07-01T03:38:53;7.35;;;2.58;;
47625;SDS011;33342;45.574;9.252;2022-07-01T03:41:20;7.75;;;2.50;;
47625;SDS011;33342;45.574;9.252;2022-07-01T03:43:47;7.15;;;2.90;;
47625;SDS011;33342;45.574;9.252;2022-07-01T03:46:14;5.70;;;2.72;;
47625;SDS011;33342;45.574;9.252;2022-07-01T03:48:41;5.13;;;2.67;;
47625;SDS011;33342;45.574;9.252;2022-07-01T03:51:08;8.57;;;2.83;;
47625;SDS011;33342;45.574;9.252;2022-07-01T03:53:36;9.77;;;3.28;;
47625;SDS011;33342;45.574;9.252;2022-07-01T03:56:21;9.52;;;3.10;;
47625;SDS011;33342;45.574;9.252;2022-07-01T03:58:48;6.15;;;3.03;;
47625;SDS011;33342;45.574;9.252;2022-07-01T04:01:16;6.78;;;3.13;;
47625;SDS011;33342;45.574;9.252;2022-07-01T04:03:43;8.43;;;2.90;;
47625;SDS011;33342;45.574;9.252;2022-07-01T04:06:10;8.15;;;2.40;;
47625;SDS011;33342;45.574;9.252;2022-07-01T04:08:37;8.98;;;3.03;;
47625;SDS011;33342;45.574;9.252;2022-07-01T04:11:05;8.15;;;2.90;;
47625;SDS011;33342;45.574;9.252;2022-07-01T04:13:35;7.82;;;2.65;;
47625;SDS011;33342;45.574;9.252;2022-07-01T04:16:06;7.03;;;2.90;;
47625;SDS011;33342;45.574;9.252;2022-07-01T04:18:33;5.30;;;2.60;;
47625;SDS011;33342;45.574;9.252;2022-07-01T04:21:00;5.85;;;2.45;;
47625;SDS011;33342;45.574;9.252;2022-07-01T04:26:13;5.53;;;2.92;;
47625;SDS011;33342;45.574;9.252;2022-07-01T04:29:00;6.78;;;2.97;;
47625;SDS011;33342;45.574;9.252;2022-07-01T04:31:27;9.30;;;3.25;;
47625;SDS011;33342;45.574;9.252;2022-07-01T04:33:54;9.52;;;4.05;;
47625;SDS011;33342;45.574;9.252;2022-07-01T04:36:22;9.55;;;5.00;;
47625;SDS011;33342;45.574;9.252;2022-07-01T04:38:52;10.00;;;5.05;;
47625;SDS011;33342;45.574;9.252;2022-07-01T04:41:19;13.10;;;8.32;;
47625;SDS011;33342;45.574;9.252;2022-07-01T04:44:05;12.32;;;6.40;;
47625;SDS011;33342;45.574;9.252;2022-07-01T04:46:32;8.27;;;4.68;;
47625;SDS011;33342;45.574;9.252;2022-07-01T04:48:59;8.32;;;4.38;;
47625;SDS011;33342;45.574;9.252;2022-07-01T04:51:30;10.10;;;4.63;;
47625;SDS011;33342;45.574;9.252;2022-07-01T04:53:57;11.38;;;5.00;;
47625;SDS011;33342;45.574;9.252;2022-07-01T04:56:24;12.30;;;5.53;;
47625;SDS011;33342;45.574;9.252;2022-07-01T04:58:53;10.18;;;5.10;;
47625;SDS011;33342;45.574;9.252;2022-07-01T05:01:21;13.13;;;7.88;;
47625;SDS011;33342;45.574;9.252;2022-07-01T05:03:49;12.88;;;7.45;;
47625;SDS011;33342;45.574;9.252;2022-07-01T05:06:17;12.00;;;6.40;;
47625;SDS011;33342;45.574;9.252;2022-07-01T05:08:44;11.98;;;7.53;;
47625;SDS011;33342;45.574;9.252;2022-07-01T05:11:11;12.73;;;7.35;;
47625;SDS011;33342;45.574;9.252;2022-07-01T05:13:41;15.73;;;8.00;;
47625;SDS011;33342;45.574;9.252;2022-07-01T05:16:15;14.98;;;8.95;;
47625;SDS011;33342;45.574;9.252;2022-07-01T05:18:42;17.77;;;10.00;;
47625;SDS011;33342;45.574;9.252;2022-07-01T05:21:28;17.67;;;9.73;;
47625;SDS011;33342;45.574;9.252;2022-07-01T05:24:13;17.00;;;11.88;;
47625;SDS011;33342;45.574;9.252;2022-07-01T05:26:40;16.70;;;10.77;;
47625;SDS011;33342;45.574;9.252;2022-07-01T05:29:08;16.05;;;11.13;;
47625;SDS011;33342;45.574;9.252;2022-07-01T05:31:36;21.15;;;10.45;;
47625;SDS011;33342;45.574;9.252;2022-07-01T05:34:03;21.83;;;9.63;;
47625;SDS011;33342;45.574;9.252;2022-07-01T05:36:30;17.63;;;8.20;;
47625;SDS011;33342;45.574;9.252;2022-07-01T05:38:58;22.15;;;10.85;;
47625;SDS011;33342;45.574;9.252;2022-07-01T05:41:25;16.42;;;9.52;;
47625;SDS011;33342;45.574;9.252;2022-07-01T05:43:53;15.20;;;9.25;;
47625;SDS011;33342;45.574;9.252;2022-07-01T05:46:20;20.30;;;9.98;;
47625;SDS011;33342;45.574;9.252;2022-07-01T05:48:47;15.60;;;9.60;;
47625;SDS011;33342;45.574;9.252;2022-07-01T05:51:17;16.90;;;8.50;;
47625;SDS011;33342;45.574;9.252;2022-07-01T05:53:44;13.27;;;8.13;;
47625;SDS011;33342;45.574;9.252;2022-07-01T05:56:13;16.17;;;8.57;;
47625;SDS011;33342;45.574;9.252;2022-07-01T05:58:41;17.15;;;9.85;;
47625;SDS011;33342;45.574;9.252;2022-07-01T06:01:09;14.13;;;9.05;;
47625;SDS011;33342;45.574;9.252;2022-07-01T06:03:36;15.98;;;10.63;;
47625;SDS011;33342;45.574;9.252;2022-07-01T06:06:07;19.30;;;9.77;;
47625;SDS011;33342;45.574;9.252;2022-07-01T06:08:34;15.45;;;10.25;;
47625;SDS011;33342;45.574;9.252;2022-07-01T06:11:01;15.15;;;10.25;;
47625;SDS011;33342;45.574;9.252;2022-07-01T06:13:30;18.17;;;10.02;;
47625;SDS011;33342;45.574;9.252;2022-07-01T06:15:57;15.10;;;10.90;;
47625;SDS011;33342;45.574;9.252;2022-07-01T06:18:25;17.65;;;12.48;;
47625;SDS011;33342;45.574;9.252;2022-07-01T06:20:52;20.63;;;12.75;;
47625;SDS011;33342;45.574;9.252;2022-07-01T06:23:19;20.88;;;12.43;;
47625;SDS011;33342;45.574;9.252;2022-07-01T06:25:46;33.95;;;15.13;;
47625;SDS011;33342;45.574;9.252;2022-07-01T06:28:14;26.08;;;15.07;;
47625;SDS011;33342;45.574;9.252;2022-07-01T06:30:41;26.33;;;17.77;;
47625;SDS011;33342;45.574;9.252;2022-07-01T06:33:11;21.88;;;15.25;;
47625;SDS011;33342;45.574;9.252;2022-07-01T06:35:40;19.85;;;15.18;;
47625;SDS011;33342;45.574;9.252;2022-07-01T06:38:07;26.02;;;16.92;;
47625;SDS011;33342;45.574;9.252;2022-07-01T06:40:36;26.63;;;15.45;;
47625;SDS011;33342;45.574;9.252;2022-07-01T06:43:03;22.17;;;15.48;;
47625;SDS011;33342;45.574;9.252;2022-07-01T06:45:30;24.15;;;17.02;;
47625;SDS011;33342;45.574;9.252;2022-07-01T06:47:58;25.67;;;20.30;;
47625;SDS011;33342;45.574;9.252;2022-07-01T06:50:25;23.23;;;17.55;;
47625;SDS011;33342;45.574;9.252;2022-07-01T06:52:52;22.70;;;17.52;;
47625;SDS011;33342;45.574;9.252;2022-07-01T06:55:19;30.92;;;24.42;;
47625;SDS011;33342;45.574;9.252;2022-07-01T06:57:46;25.35;;;18.25;;
47625;SDS011;33342;45.574;9.252;2022-07-01T07:00:14;23.52;;;16.63;;
47625;SDS011;33342;45.574;9.252;2022-07-01T07:02:41;26.00;;;17.80;;
47625;SDS011;33342;45.574;9.252;2022-07-01T07:05:08;27.25;;;17.73;;
47625;SDS011;33342;45.574;9.252;2022-07-01T07:07:37;25.17;;;18.05;;
47625;SDS011;33342;45.574;9.252;2022-07-01T07:10:04;27.27;;;18.33;;
47625;SDS011;33342;45.574;9.252;2022-07-01T07:12:32;22.60;;;17.42;;
47625;SDS011;33342;45.574;9.252;2022-07-01T07:14:59;23.27;;;18.10;;
47625;SDS011;33342;45.574;9.252;2022-07-01T07:17:28;26.88;;;18.75;;
47625;SDS011;33342;45.574;9.252;2022-07-01T07:19:55;28.17;;;19.75;;
47625;SDS011;33342;45.574;9.252;2022-07-01T07:22:24;24.55;;;19.02;;
47625;SDS011;33342;45.574;9.252;2022-07-01T07:24:52;31.73;;;19.15;;
47625;SDS011;33342;45.574;9.252;2022-07-01T07:27:19;25.90;;;16.77;;
47625;SDS011;33342;45.574;9.252;2022-07-01T07:29:46;22.90;;;16.80;;
47625;SDS011;33342;45.574;9.252;2022-07-01T07:32:13;24.20;;;17.27;;
47625;SDS011;33342;45.574;9.252;2022-07-01T07:34:43;26.17;;;19.40;;
47625;SDS011;33342;45.574;9.252;2022-07-01T07:37:10;25.30;;;16.58;;
47625;SDS011;33342;45.574;9.252;2022-07-01T07:39:37;38.33;;;18.27;;
47625;SDS011;33342;45.574;9.252;2022-07-01T07:42:04;26.90;;;19.38;;
47625;SDS011;33342;45.574;9.252;2022-07-01T07:44:32;24.65;;;17.55;;
47625;SDS011;33342;45.574;9.252;2022-07-01T07:46:59;25.60;;;17.30;;
47625;SDS011;33342;45.574;9.252;2022-07-01T07:49:26;26.23;;;16.13;;
47625;SDS011;33342;45.574;9.252;2022-07-01T07:51:54;24.73;;;16.45;;
47625;SDS011;33342;45.574;9.252;2022-07-01T07:54:21;24.17;;;15.82;;
47625;SDS011;33342;45.574;9.252;2022-07-01T07:56:48;23.17;;;13.95;;
47625;SDS011;33342;45.574;9.252;2022-07-01T07:59:15;22.33;;;13.85;;
47625;SDS011;33342;45.574;9.252;2022-07-01T08:01:42;20.38;;;14.48;;
47625;SDS011;33342;45.574;9.252;2022-07-01T08:04:09;22.70;;;14.68;;
47625;SDS011;33342;45.574;9.252;2022-07-01T08:06:36;20.60;;;14.45;;
47625;SDS011;33342;45.574;9.252;2022-07-01T08:09:04;22.90;;;12.00;;
47625;SDS011;33342;45.574;9.252;2022-07-01T08:11:31;22.25;;;11.20;;
47625;SDS011;33342;45.574;9.252;2022-07-01T08:13:58;14.75;;;7.80;;
47625;SDS011;33342;45.574;9.252;2022-07-01T08:16:26;9.30;;;4.35;;
47625;SDS011;33342;45.574;9.252;2022-07-01T08:18:53;7.72;;;3.70;;
47625;SDS011;33342;45.574;9.252;2022-07-01T08:21:20;7.93;;;3.28;;
47625;SDS011;33342;45.574;9.252;2022-07-01T08:23:50;7.10;;;3.53;;
47625;SDS011;33342;45.574;9.252;2022-07-01T08:26:17;8.00;;;3.50;;
47625;SDS011;33342;45.574;9.252;2022-07-01T08:28:44;6.90;;;2.78;;
47625;SDS011;33342;45.574;9.252;2022-07-01T08:31:12;6.55;;;3.13;;
47625;SDS011;33342;45.574;9.252;2022-07-01T08:33:41;8.13;;;3.05;;
47625;SDS011;33342;45.574;9.252;2022-07-01T08:36:10;9.15;;;3.05;;
47625;SDS011;33342;45.574;9.252;2022-07-01T08:38:40;8.25;;;2.88;;
47625;SDS011;33342;45.574;9.252;2022-07-01T08:41:08;6.10;;;2.58;;
47625;SDS011;33342;45.574;9.252;2022-07-01T08:43:35;8.73;;;2.70;;
47625;SDS011;33342;45.574;9.252;2022-07-01T08:46:05;10.68;;;3.40;;
47625;SDS011;33342;45.574;9.252;2022-07-01T08:48:34;9.15;;;3.17;;
47625;SDS011;33342;45.574;9.252;2022-07-01T08:51:01;12.55;;;6.45;;
47625;SDS011;33342;45.574;9.252;2022-07-01T08:53:30;6.10;;;2.55;;
47625;SDS011;33342;45.574;9.252;2022-07-01T08:55:58;6.97;;;2.60;;
47625;SDS011;33342;45.574;9.252;2022-07-01T08:58:43;8.52;;;3.20;;
47625;SDS011;33342;45.574;9.252;2022-07-01T09:01:20;9.90;;;3.10;;
47625;SDS011;33342;45.574;9.252;2022-07-01T09:03:51;4.70;;;2.30;;
47625;SDS011;33342;45.574;9.252;2022-07-01T09:06:21;10.45;;;2.72;;
47625;SDS011;33342;45.574;9.252;2022-07-01T09:08:50;4.75;;;2.22;;
47625;SDS011;33342;45.574;9.252;2022-07-01T09:11:21;4.30;;;2.05;;
47625;SDS011;33342;45.574;9.252;2022-07-01T09:14:04;5.45;;;2.30;;
47625;SDS011;33342;45.574;9.252;2022-07-01T09:16:48;9.00;;;3.15;;
47625;SDS011;33342;45.574;9.252;2022-07-01T09:19:18;6.03;;;2.53;;
47625;SDS011;33342;45.574;9.252;2022-07-01T09:21:51;7.95;;;2.38;;
47625;SDS011;33342;45.574;9.252;2022-07-01T09:27:15;9.38;;;2.50;;
47625;SDS011;33342;45.574;9.252;2022-07-01T09:29:45;4.43;;;2.20;;
47625;SDS011;33342;45.574;9.252;2022-07-01T09:32:17;6.10;;;2.10;;
47625;SDS011;33342;45.574;9.252;2022-07-01T09:34:48;5.53;;;2.25;;
47625;SDS011;33342;45.574;9.252;2022-07-01T09:37:23;7.43;;;3.70;;
47625;SDS011;33342;45.574;9.252;2022-07-01T09:39:51;8.73;;;2.45;;
47625;SDS011;33342;45.574;9.252;2022-07-01T09:42:20;7.65;;;2.40;;
47625;SDS011;33342;45.574;9.252;2022-07-01T09:45:05;6.57;;;2.30;;
47625;SDS011;33342;45.574;9.252;2022-07-01T09:47:40;4.80;;;2.38;;
47625;SDS011;33342;45.574;9.252;2022-07-01T09:50:11;11.63;;;2.55;;
47625;SDS011;33342;45.574;9.252;2022-07-01T09:52:39;5.35;;;1.98;;
47625;SDS011;33342;45.574;9.252;2022-07-01T09:55:06;4.38;;;2.17;;
47625;SDS011;33342;45.574;9.252;2022-07-01T09:57:34;6.55;;;2.70;;
47625;SDS011;33342;45.574;9.252;2022-07-01T10:00:03;5.72;;;2.22;;
47625;SDS011;33342;45.574;9.252;2022-07-01T10:02:31;7.03;;;2.30;;
47625;SDS011;33342;45.574;9.252;2022-07-01T10:13:13;6.75;;;2.30;;
47625;SDS011;33342;45.574;9.252;2022-07-01T10:15:43;7.50;;;2.28;;
47625;SDS011;33342;45.574;9.252;2022-07-01T10:18:22;8.38;;;2.60;;
47625;SDS011;33342;45.574;9.252;2022-07-01T10:20:50;7.82;;;2.67;;
47625;SDS011;33342;45.574;9.252;2022-07-01T10:23:19;6.35;;;2.05;;
47625;SDS011;33342;45.574;9.252;2022-07-01T10:25:48;8.18;;;2.35;;
47625;SDS011;33342;45.574;9.252;2022-07-01T10:28:21;7.45;;;3.22;;
47625;SDS011;33342;45.574;9.252;2022-07-01T10:33:41;5.72;;;2.75;;
47625;SDS011;33342;45.574;9.252;2022-07-01T10:36:13;8.15;;;2.20;;
47625;SDS011;33342;45.574;9.252;2022-07-01T10:44:12;6.70;;;2.20;;
47625;SDS011;33342;45.574;9.252;2022-07-01T10:46:47;9.10;;;2.78;;
47625;SDS011;33342;45.574;9.252;2022-07-01T10:52:06;5.80;;;2.42;;
47625;SDS011;33342;45.574;9.252;2022-07-01T10:59:42;5.30;;;2.00;;
47625;SDS011;33342;45.574;9.252;2022-07-01T11:02:11;7.53;;;2.10;;
47625;SDS011;33342;45.574;9.252;2022-07-01T11:04:49;6.90;;;2.10;;
47625;SDS011;33342;45.574;9.252;2022-07-01T11:07:18;5.65;;;2.05;;
47625;SDS011;33342;45.574;9.252;2022-07-01T11:09:45;6.93;;;2.50;;
47625;SDS011;33342;45.574;9.252;2022-07-01T11:12:14;4.55;;;2.08;;
47625;SDS011;33342;45.574;9.252;2022-07-01T11:14:46;6.10;;;2.33;;
47625;SDS011;33342;45.574;9.252;2022-07-01T11:17:13;6.40;;;2.13;;
47625;SDS011;33342;45.574;9.252;2022-07-01T11:19:42;6.15;;;2.25;;
47625;SDS011;33342;45.574;9.252;2022-07-01T11:22:19;6.95;;;2.28;;
47625;SDS011;33342;45.574;9.252;2022-07-01T11:24:51;6.20;;;2.60;;
47625;SDS011;33342;45.574;9.252;2022-07-01T11:27:19;5.32;;;2.58;;
47625;SDS011;33342;45.574;9.252;2022-07-01T11:29:51;6.28;;;2.50;;
47625;SDS011;33342;45.574;9.252;2022-07-01T11:32:30;6.50;;;2.95;;
47625;SDS011;33342;45.574;9.252;2022-07-01T11:34:59;6.47;;;2.17;;
47625;SDS011;33342;45.574;9.252;2022-07-01T11:37:29;6.63;;;2.20;;
47625;SDS011;33342;45.574;9.252;2022-07-01T11:40:16;6.72;;;2.42;;
47625;SDS011;33342;45.574;9.252;2022-07-01T11:42:47;5.43;;;2.72;;
47625;SDS011;33342;45.574;9.252;2022-07-01T11:45:24;6.93;;;2.30;;
47625;SDS011;33342;45.574;9.252;2022-07-01T11:47:54;6.75;;;2.67;;
47625;SDS011;33342;45.574;9.252;2022-07-01T11:50:21;5.85;;;2.22;;
47625;SDS011;33342;45.574;9.252;2022-07-01T11:52:52;6.28;;;2.60;;
47625;SDS011;33342;45.574;9.252;2022-07-01T11:55:20;6.00;;;2.38;;
47625;SDS011;33342;45.574;9.252;2022-07-01T11:58:04;7.00;;;2.72;;
47625;SDS011;33342;45.574;9.252;2022-07-01T12:00:33;7.15;;;2.70;;
47625;SDS011;33342;45.574;9.252;2022-07-01T12:03:01;4.93;;;2.25;;
47625;SDS011;33342;45.574;9.252;2022-07-01T12:05:28;8.75;;;2.78;;
47625;SDS011;33342;45.574;9.252;2022-07-01T12:08:03;5.30;;;2.33;;
47625;SDS011;33342;45.574;9.252;2022-07-01T12:10:31;8.95;;;2.80;;
47625;SDS011;33342;45.574;9.252;2022-07-01T12:12:59;8.55;;;2.60;;
47625;SDS011;33342;45.574;9.252;2022-07-01T12:15:26;8.70;;;3.05;;
47625;SDS011;33342;45.574;9.252;2022-07-01T12:18:04;5.40;;;2.72;;
47625;SDS011;33342;45.574;9.252;2022-07-01T12:20:32;5.38;;;2.33;;
47625;SDS011;33342;45.574;9.252;2022-07-01T12:23:12;7.05;;;2.65;;
47625;SDS011;33342;45.574;9.252;2022-07-01T12:25:40;7.10;;;2.67;;
47625;SDS011;33342;45.574;9.252;2022-07-01T12:28:33;9.38;;;2.63;;
47625;SDS011;33342;45.574;9.252;2022-07-01T12:33:36;5.72;;;2.45;;
47625;SDS011;33342;45.574;9.252;2022-07-01T12:36:05;6.90;;;2.40;;
47625;SDS011;33342;45.574;9.252;2022-07-01T12:38:33;5.10;;;2.15;;
47625;SDS011;33342;45.574;9.252;2022-07-01T12:41:01;7.20;;;2.17;;
47625;SDS011;33342;45.574;9.252;2022-07-01T12:43:29;7.80;;;2.80;;
47625;SDS011;33342;45.574;9.252;2022-07-01T12:46:03;6.45;;;2.53;;
47625;SDS011;33342;45.574;9.252;2022-07-01T12:48:46;3.92;;;2.20;;
47625;SDS011;33342;45.574;9.252;2022-07-01T12:51:15;7.88;;;2.55;;
47625;SDS011;33342;45.574;9.252;2022-07-01T12:53:42;5.60;;;1.98;;
47625;SDS011;33342;45.574;9.252;2022-07-01T12:56:30;6.10;;;2.10;;
47625;SDS011;33342;45.574;9.252;2022-07-01T12:58:57;5.60;;;2.10;;
47625;SDS011;33342;45.574;9.252;2022-07-01T13:01:24;4.75;;;2.13;;
47625;SDS011;33342;45.574;9.252;2022-07-01T13:03:52;5.65;;;2.47;;
47625;SDS011;33342;45.574;9.252;2022-07-01T13:06:19;5.22;;;2.50;;
47625;SDS011;33342;45.574;9.252;2022-07-01T13:08:46;5.90;;;2.40;;
47625;SDS011;33342;45.574;9.252;2022-07-01T13:11:13;8.23;;;2.25;;
47625;SDS011;33342;45.574;9.252;2022-07-01T13:13:40;6.53;;;2.42;;
47625;SDS011;33342;45.574;9.252;2022-07-01T13:16:08;9.52;;;2.33;;
47625;SDS011;33342;45.574;9.252;2022-07-01T13:18:35;7.70;;;2.63;;
47625;SDS011;33342;45.574;9.252;2022-07-01T13:21:02;7.95;;;2.55;;
47625;SDS011;33342;45.574;9.252;2022-07-01T13:23:29;5.57;;;2.28;;
47625;SDS011;33342;45.574;9.252;2022-07-01T13:26:00;7.00;;;2.25;;
47625;SDS011;33342;45.574;9.252;2022-07-01T13:28:28;10.02;;;5.32;;
47625;SDS011;33342;45.574;9.252;2022-07-01T13:30:55;6.80;;;2.58;;
47625;SDS011;33342;45.574;9.252;2022-07-01T13:33:22;7.82;;;2.40;;
47625;SDS011;33342;45.574;9.252;2022-07-01T13:35:49;7.13;;;2.42;;
47625;SDS011;33342;45.574;9.252;2022-07-01T13:38:16;6.35;;;2.20;;
47625;SDS011;33342;45.574;9.252;2022-07-01T13:40:44;6.40;;;2.30;;
47625;SDS011;33342;45.574;9.252;2022-07-01T13:43:12;7.85;;;2.75;;
47625;SDS011;33342;45.574;9.252;2022-07-01T13:45:42;6.30;;;2.67;;
47625;SDS011;33342;45.574;9.252;2022-07-01T13:48:09;5.50;;;2.58;;
47625;SDS011;33342;45.574;9.252;2022-07-01T13:50:36;6.85;;;2.25;;
47625;SDS011;33342;45.574;9.252;2022-07-01T13:53:03;7.03;;;2.30;;
47625;SDS011;33342;45.574;9.252;2022-07-01T13:55:31;5.72;;;2.45;;
47625;SDS011;33342;45.574;9.252;2022-07-01T13:57:58;7.68;;;2.53;;
47625;SDS011;33342;45.574;9.252;2022-07-01T14:00:25;5.00;;;2.35;;
47625;SDS011;33342;45.574;9.252;2022-07-01T14:02:55;6.18;;;2.30;;
47625;SDS011;33342;45.574;9.252;2022-07-01T14:05:22;7.28;;;2.65;;
47625;SDS011;33342;45.574;9.252;2022-07-01T14:07:49;4.47;;;2.40;;
47625;SDS011;33342;45.574;9.252;2022-07-01T14:10:16;6.30;;;2.35;;
47625;SDS011;33342;45.574;9.252;2022-07-01T14:12:44;9.55;;;2.35;;
47625;SDS011;33342;45.574;9.252;2022-07-01T14:15:11;6.00;;;2.53;;
47625;SDS011;33342;45.574;9.252;2022-07-01T14:17:38;5.25;;;2.40;;
47625;SDS011;33342;45.574;9.252;2022-07-01T14:20:06;7.72;;;2.65;;
47625;SDS011;33342;45.574;9.252;2022-07-01T14:22:35;7.07;;;2.42;;
47625;SDS011;33342;45.574;9.252;2022-07-01T14:25:03;6.45;;;2.40;;
47625;SDS011;33342;45.574;9.252;2022-07-01T14:27:30;5.82;;;2.42;;
47625;SDS011;33342;45.574;9.252;2022-07-01T14:29:57;9.93;;;2.50;;
47625;SDS011;33342;45.574;9.252;2022-07-01T14:32:24;8.20;;;2.47;;
47625;SDS011;33342;45.574;9.252;2022-07-01T14:34:56;6.45;;;2.40;;
47625;SDS011;33342;45.574;9.252;2022-07-01T14:37:23;7.40;;;2.42;;
47625;SDS011;33342;45.574;9.252;2022-07-01T14:39:51;7.15;;;2.40;;
47625;SDS011;33342;45.574;9.252;2022-07-01T14:42:23;5.68;;;2.20;;
47625;SDS011;33342;45.574;9.252;2022-07-01T14:44:52;11.20;;;2.72;;
47625;SDS011;33342;45.574;9.252;2022-07-01T14:47:22;6.78;;;2.42;;
47625;SDS011;33342;45.574;9.252;2022-07-01T14:49:50;7.65;;;2.05;;
47625;SDS011;33342;45.574;9.252;2022-07-01T14:52:18;7.60;;;2.20;;
47625;SDS011;33342;45.574;9.252;2022-07-01T14:54:46;11.23;;;2.25;;
47625;SDS011;33342;45.574;9.252;2022-07-01T14:57:14;4.35;;;2.15;;
47625;SDS011;33342;45.574;9.252;2022-07-01T14:59:41;5.10;;;2.20;;
47625;SDS011;33342;45.574;9.252;2022-07-01T15:02:08;5.82;;;2.33;;
47625;SDS011;33342;45.574;9.252;2022-07-01T15:04:35;5.95;;;2.40;;
47625;SDS011;33342;45.574;9.252;2022-07-01T15:07:02;6.07;;;2.30;;
47625;SDS011;33342;45.574;9.252;2022-07-01T15:09:30;10.05;;;2.42;;
47625;SDS011;33342;45.574;9.252;2022-07-01T15:11:57;4.88;;;2.50;;
47625;SDS011;33342;45.574;9.252;2022-07-01T15:14:24;8.27;;;2.00;;
47625;SDS011;33342;45.574;9.252;2022-07-01T15:16:52;5.43;;;2.25;;
47625;SDS011;33342;45.574;9.252;2022-07-01T15:19:20;6.18;;;2.28;;
47625;SDS011;33342;45.574;9.252;2022-07-01T15:21:47;7.03;;;2.20;;
47625;SDS011;33342;45.574;9.252;2022-07-01T15:24:19;5.78;;;2.70;;
47625;SDS011;33342;45.574;9.252;2022-07-01T15:26:47;6.63;;;2.00;;